• Join FlightAware (Why Join?)
  • Login
  • US Flag 
12:13AM EDT


 

Airport Tracker/Info


-or-


 

Live Flight TrackerFlight Track Log ✈ N749SS ✈ 06-Sep-2013 ✈ KSNA - KSBA

Flight Track Log - Related Links

Times and Time Zones

All times are in EDT time to prevent confusion due to time zone crossing. See the N749SS flight status page for this flight to view local times or setup timezone preferences in your user account.

Time Position Orientation Groundspeed Altitude Reporting Facility
EDT Latitude Longitude Course Direction KTS MPH feet Rate Location/Type
04:21PM 34.1017 -119.7308 123° Southeast 308 354 13,200  Level Los Angeles Center
04:22PM 34.0533 -119.6394 123° Southeast 324 373 16,900 2,760 Climbing Los Angeles Center
04:23PM 34.0022 -119.5425 122° Southeast 339 390 19,000 1,560 Climbing Los Angeles Center
04:24PM 33.9358 -119.4264 125° Southeast 412 474 20,200 2,220 Climbing Los Angeles Center
04:25PM 33.8594 -119.2836 123° Southeast 421 484 23,600 3,060 Climbing Los Angeles Center
04:26PM 33.7947 -119.1706 125° Southeast 412 474 26,600 2,820 Climbing Los Angeles Center
04:27PM 33.7486 -119.0489 114° Southeast 416 479 29,500 2,580 Climbing Los Angeles Center
04:29PM 33.7442 -118.9125 92° East 410 472 32,000 2,220 Climbing Los Angeles Center
04:30PM 33.7408 -118.7753 92° East 413 475 34,200 2,220 Climbing Los Angeles Center
04:31PM 33.7353 -118.6058 92° East 421 484 36,600 1,800 Climbing Los Angeles Center
04:32PM 33.7308 -118.4619 92° East 427 491 38,000 1,140 Climbing Los Angeles Center
04:33PM 33.7247 -118.3250 93° East 436 502 39,000 720 Climbing Los Angeles Center
04:34PM 33.7181 -118.1319 92° East 489 563 39,500 720 Climbing Los Angeles Center
04:35PM 33.7131 -117.9803 92° East 476 548 40,600 720 Climbing Los Angeles Center
04:36PM 33.7128 -117.8328 90° East 453 521 41,000 360 Climbing Los Angeles Center
04:38PM 33.7061 -117.6039 92° East  Level FlightAware Approximate
04:45PM 33.6640 -116.6890 96° East  Level FlightAware Approximate
04:46PM 33.6528 -116.5589 96° East  Level FlightAware Approximate
04:47PM 33.6415 -116.4288 96° East  Level FlightAware Approximate
04:48PM 33.6300 -116.2987 96° East  Level FlightAware Approximate
04:49PM 33.6184 -116.1687 96° East  Level FlightAware Approximate
04:50PM 33.6149 -116.0381 91° East  Level FlightAware Approximate
04:51PM 33.6128 -115.9074 91° East  Level FlightAware Approximate
04:52PM 33.6105 -115.7767 91° East  Level FlightAware Approximate
04:53PM 33.6081 -115.6460 91° East  Level FlightAware Approximate
04:54PM 33.6056 -115.5153 91° East  Level FlightAware Approximate
04:55PM 33.6029 -115.3846 91° East  Level FlightAware Approximate
04:56PM 33.6001 -115.2539 91° East  Level FlightAware Approximate
04:57PM 33.5960 -115.1233 92° East  Level FlightAware Approximate
04:58PM 33.5917 -114.9927 92° East  Level FlightAware Approximate
04:59PM 33.5872 -114.8621 92° East  Level FlightAware Approximate
05:00PM 33.5798 -114.7319 103° East  Level FlightAware Approximate
05:01PM 33.5545 -114.6048 103° East  Level FlightAware Approximate
05:02PM 33.5291 -114.4778 103° East  Level FlightAware Approximate
05:03PM 33.5035 -114.3509 104° East  Level FlightAware Approximate
05:04PM 33.4795 -114.2235 103° East  Level FlightAware Approximate
05:05PM 33.4556 -114.0962 103° East  Level FlightAware Approximate
05:06PM 33.4333 -113.9694 90° East  Level FlightAware Approximate
05:07PM 33.4076 -113.8427 105° East  Level FlightAware Approximate
05:08PM 33.3796 -113.7167 105° East  Level FlightAware Approximate
05:09PM 33.3516 -113.5907 105° East  Level FlightAware Approximate
05:10PM 33.3333 -113.4630 90° East  Level FlightAware Approximate
05:11PM 33.3137 -113.3350 103° East  Level FlightAware Approximate
05:12PM 33.2856 -113.2092 107° East  Level FlightAware Approximate
05:13PM 33.2667 -113.0823 90° East  Level FlightAware Approximate
05:14PM 33.2667 -112.9521 90° East  Level FlightAware Approximate
05:15PM 33.2667 -112.8219 90° East  Level FlightAware Approximate
05:16PM 33.2813 -112.6937 77° East  Level FlightAware Approximate
05:17PM 33.2834 -112.5637 90° East  Level FlightAware Approximate
05:18PM 33.2834 -112.4335 90° East  Level FlightAware Approximate
05:19PM 33.2834 -112.3032 90° East  Level FlightAware Approximate
05:20PM 33.2833 -112.1730 90° East  Level FlightAware Approximate
05:21PM 33.2833 -112.0427 90° East  Level FlightAware Approximate
05:22PM 33.2833 -111.9125 90° East  Level FlightAware Approximate
05:23PM 33.3664 -111.9000 North  Level FlightAware Approximate
05:24PM 33.4753 -111.9000 North  Level FlightAware Approximate
05:25PM 33.5842 -111.9000 North  Level FlightAware Approximate
05:26PM 33.6167 -111.9000 North  Level FlightAware Approximate
05:27PM 33.6341 -112.0291 North  Level Estimated
05:28PM 33.6167 -111.9000 North  Level FlightAware Approximate
05:29PM 33.6341 -112.0291 North  Level Estimated
05:30PM 33.6167 -111.9000 North  Level FlightAware Approximate
05:31PM 33.6341 -112.0291 North  Level Estimated
05:32PM 33.6167 -111.9000 North  Level FlightAware Approximate
05:33PM 33.6341 -112.0291 North  Level Estimated
05:34PM 33.6167 -111.9000 North  Level FlightAware Approximate
05:35PM 33.6341 -112.0291 North  Level Estimated
05:36PM 33.6167 -111.9000 North  Level FlightAware Approximate
05:37PM 33.6341 -112.0291 North  Level Estimated
05:38PM 33.6167 -111.9000 North  Level FlightAware Approximate
05:39PM 33.6341 -112.0291 North  Level Estimated